Russelville, Illinois
Current Conditions -  °F | °C
As of 6:53 PM on Tuesday 25 Nov 2014 (Local Time) from KLWV Reporting Station
Overcast Overcast  
Wind Chill: 26°   Ceiling: 2000
Heat Index: 31°   Visibility: 10mi
Dew Point: 25°   Wind: 5mph
Humidity: 79%   Direction: 360°N
Pressure: 30.23"   Gusts: NA
Location:  38.7501°N, 87.6141°W
Report Text: KLWV 260053Z AUTO 36004KT 10SM OVC020 M01/M04 A3023 RMK AO2 SLP240 T10061039
Loading
Personal Weather Stations






























Interactive Weather Map New forecast layout! Learn more

10-Day Weather Forecast

Advertisements
Track Severe Weather on mobile